Time;durP1;ratioP1;P1;durP2;ratioP2;P2;SDS_P1;SDS_P2;PMS_P1;PMS_P2;Temp;Humidity;BMP_temperature;BMP_pressure;BME280_temperature;BME280_humidity;BME280_pressure;Samples;Min_cycle;Max_cycle;Signal;HPM_P1;HPM_P2
2021/12/06 00:01:33;;;;;;;2.50;2.30;;;17.30;57.60;;;;;;5050196;28;20246;-59
2021/12/06 00:04:29;;;;;;;2.85;2.58;;;17.40;57.70;;;;;;5051244;28;20210;-60
2021/12/06 00:06:58;;;;;;;2.88;2.30;;;17.30;57.60;;;;;;5046724;28;20194;-59
2021/12/06 00:09:24;;;;;;;2.30;2.10;;;17.30;57.60;;;;;;5050275;28;20186;-59
2021/12/06 00:11:56;;;;;;;2.80;2.60;;;17.30;57.60;;;;;;5051399;28;20625;-60
2021/12/06 00:14:28;;;;;;;3.00;2.70;;;17.30;57.60;;;;;;5051374;28;20258;-60
2021/12/06 00:16:55;;;;;;;3.00;2.35;;;17.30;57.60;;;;;;5050694;28;20250;-59
2021/12/06 00:19:20;;;;;;;3.15;2.85;;;17.30;57.60;;;;;;5050911;28;20552;-61
2021/12/06 00:21:46;;;;;;;2.60;2.40;;;17.30;57.60;;;;;;5050499;28;20657;-61
2021/12/06 00:24:11;;;;;;;2.92;2.65;;;17.20;57.60;;;;;;5050997;28;20696;-61
2021/12/06 00:26:37;;;;;;;2.67;2.47;;;17.20;57.60;;;;;;5050887;28;20653;-60
2021/12/06 00:29:03;;;;;;;2.80;2.60;;;17.20;57.60;;;;;;5052567;28;20175;-61
2021/12/06 00:31:32;;;;;;;2.60;2.40;;;17.20;57.50;;;;;;5054510;28;20229;-60
2021/12/06 00:34:00;;;;;;;2.50;2.30;;;17.20;57.60;;;;;;5054759;28;20283;-61
2021/12/06 00:36:27;;;;;;;2.90;2.70;;;17.20;57.60;;;;;;5053570;28;20182;-61
2021/12/06 00:38:53;;;;;;;3.17;2.88;;;17.20;57.50;;;;;;5054548;28;20206;-60
2021/12/06 00:41:18;;;;;;;2.97;2.67;;;17.20;57.50;;;;;;5054366;28;20212;-60
2021/12/06 00:43:44;;;;;;;2.80;2.60;;;17.20;57.50;;;;;;5053766;28;20183;-60
2021/12/06 00:46:09;;;;;;;2.60;2.40;;;17.20;57.60;;;;;;5054376;28;20626;-61
2021/12/06 00:48:35;;;;;;;3.65;3.05;;;17.10;57.50;;;;;;5054154;28;20702;-60
2021/12/06 00:51:00;;;;;;;2.60;2.40;;;17.10;57.50;;;;;;5053488;28;20223;-60
2021/12/06 00:53:26;;;;;;;2.70;2.50;;;17.10;57.40;;;;;;5053906;28;20180;-60
2021/12/06 00:55:51;;;;;;;3.05;2.78;;;17.10;57.50;;;;;;5054331;28;20270;-61
2021/12/06 00:58:17;;;;;;;3.53;3.05;;;17.10;57.50;;;;;;5053446;28;20209;-61
2021/12/06 01:00:44;;;;;;;3.03;2.72;;;17.10;57.50;;;;;;5053911;28;20179;-60
2021/12/06 01:03:15;;;;;;;3.30;3.03;;;17.10;57.60;;;;;;5054236;28;20583;-61
2021/12/06 01:05:41;;;;;;;3.72;3.25;;;17.30;57.50;;;;;;5053045;28;20577;-60
2021/12/06 01:08:06;;;;;;;3.22;2.83;;;17.10;57.50;;;;;;5054192;28;20201;-59
2021/12/06 01:10:32;;;;;;;3.40;3.20;;;17.00;57.50;;;;;;5053662;28;20534;-60
2021/12/06 01:12:58;;;;;;;3.03;2.83;;;17.00;57.60;;;;;;5053274;28;20180;-60
2021/12/06 01:15:24;;;;;;;3.80;3.45;;;17.00;57.40;;;;;;5053662;28;20199;-60
2021/12/06 01:17:49;;;;;;;3.10;2.80;;;17.00;57.40;;;;;;5053562;28;20214;-61
2021/12/06 01:20:19;;;;;;;3.42;3.20;;;17.00;57.40;;;;;;5053744;28;20167;-60
2021/12/06 01:22:54;;;;;;;3.40;3.13;;;17.00;57.40;;;;;;5053748;28;20646;-60
2021/12/06 01:25:34;;;;;;;3.50;3.22;;;17.00;57.40;;;;;;5052793;28;20218;-60
2021/12/06 01:41:25;;;;;;;3.67;3.22;;;16.90;57.30;;;;;;5052210;28;20194;-60
2021/12/06 01:44:10;;;;;;;4.00;3.58;;;16.90;57.30;;;;;;5053565;28;20612;-60
2021/12/06 01:46:37;;;;;;;4.47;3.40;;;16.90;58.00;;;;;;5052487;28;20179;-60
2021/12/06 01:49:04;;;;;;;3.53;3.22;;;16.90;57.30;;;;;;5053289;28;20186;-59
2021/12/06 01:51:29;;;;;;;3.83;3.53;;;16.90;57.30;;;;;;5052778;28;20239;-59
2021/12/06 01:53:55;;;;;;;4.18;3.78;;;16.90;57.30;;;;;;5052560;28;20266;-59
2021/12/06 01:56:20;;;;;;;3.38;3.17;;;16.80;57.30;;;;;;5053057;28;20302;-59
2021/12/06 01:58:46;;;;;;;3.60;3.28;;;16.80;57.30;;;;;;5052988;28;20257;-59
2021/12/06 02:01:11;;;;;;;3.92;3.53;;;16.80;57.30;;;;;;5052508;28;20640;-59
2021/12/06 02:03:37;;;;;;;4.03;3.72;;;16.80;57.30;;;;;;5052571;28;20170;-59
2021/12/06 02:06:03;;;;;;;4.38;4.03;;;16.80;57.30;;;;;;5052965;28;20248;-59
2021/12/06 02:08:28;;;;;;;3.58;3.28;;;16.80;57.30;;;;;;5051843;28;20203;-58
2021/12/06 02:11:00;;;;;;;4.47;3.92;;;16.80;57.30;;;;;;5052969;28;20618;-59
2021/12/06 02:13:28;;;;;;;4.00;3.60;;;16.80;57.30;;;;;;5052533;28;20626;-60
2021/12/06 02:15:55;;;;;;;4.60;4.20;;;16.80;57.30;;;;;;5052126;28;20214;-61
2021/12/06 02:18:43;;;;;;;4.38;4.05;;;16.80;58.00;;;;;;5052427;28;20229;-60
2021/12/06 02:21:29;;;;;;;4.53;4.13;;;16.70;57.30;;;;;;5052068;28;20194;-60
2021/12/06 02:23:54;;;;;;;4.20;3.80;;;16.70;57.20;;;;;;5052607;28;20178;-60
2021/12/06 02:26:21;;;;;;;4.20;3.80;;;16.70;57.40;;;;;;5052387;28;20178;-60
2021/12/06 02:28:47;;;;;;;4.32;3.92;;;16.70;57.30;;;;;;5052031;28;20247;-60
2021/12/06 02:31:13;;;;;;;4.47;4.07;;;16.70;57.30;;;;;;5052404;28;20558;-61
2021/12/06 02:33:38;;;;;;;4.18;3.88;;;16.70;57.30;;;;;;5052387;28;20202;-60
2021/12/06 02:36:04;;;;;;;4.55;4.15;;;16.70;57.40;;;;;;5051888;28;20361;-61
2021/12/06 02:38:30;;;;;;;4.78;3.80;;;16.70;57.30;;;;;;5052152;28;20592;-60
2021/12/06 02:40:55;;;;;;;4.50;3.88;;;16.70;57.30;;;;;;5052324;28;20210;-61
2021/12/06 02:43:21;;;;;;;4.57;4.18;;;16.70;57.30;;;;;;5051195;28;20250;-61
2021/12/06 02:45:46;;;;;;;4.85;4.30;;;16.70;57.30;;;;;;5052145;28;20222;-61
2021/12/06 02:48:12;;;;;;;4.82;4.43;;;16.60;57.30;;;;;;5052059;28;20266;-60
2021/12/06 02:50:47;;;;;;;5.03;4.53;;;16.70;57.30;;;;;;5049562;28;20227;-60
2021/12/06 02:53:13;;;;;;;4.88;4.45;;;16.60;57.20;;;;;;5052380;28;20174;-60
2021/12/06 02:55:40;;;;;;;5.10;4.63;;;16.60;57.20;;;;;;5051753;28;20290;-60
2021/12/06 02:58:21;;;;;;;4.93;4.47;;;16.60;57.20;;;;;;5051384;28;20574;-60
2021/12/06 03:00:52;;;;;;;4.68;4.28;;;16.60;57.30;;;;;;5052202;28;20254;-60
2021/12/06 03:03:18;;;;;;;5.80;5.30;;;16.60;57.30;;;;;;5052058;28;20244;-60
2021/12/06 03:05:44;;;;;;;4.85;4.45;;;16.70;57.40;;;;;;5051573;28;20219;-59
2021/12/06 03:08:10;;;;;;;5.40;4.93;;;16.50;57.20;;;;;;5051993;28;20258;-59
2021/12/06 03:10:35;;;;;;;5.18;4.75;;;16.60;57.20;;;;;;5050964;28;20254;-59
2021/12/06 03:13:01;;;;;;;5.30;4.80;;;16.50;57.20;;;;;;5051765;28;20211;-60
2021/12/06 03:15:26;;;;;;;5.07;4.68;;;16.60;57.30;;;;;;5051711;28;20167;-60
2021/12/06 03:17:52;;;;;;;5.00;4.50;;;16.60;57.20;;;;;;5051312;28;20175;-60
2021/12/06 03:20:17;;;;;;;5.35;4.85;;;16.50;57.20;;;;;;5051822;28;20167;-60
2021/12/06 03:22:43;;;;;;;5.65;5.15;;;16.50;57.20;;;;;;5051511;28;20175;-60
2021/12/06 03:25:10;;;;;;;5.05;4.55;;;16.50;57.20;;;;;;5050928;28;20207;-60
2021/12/06 03:27:35;;;;;;;4.97;4.55;;;16.50;57.20;;;;;;5051332;28;20175;-61
2021/12/06 03:30:01;;;;;;;5.60;4.93;;;16.50;57.20;;;;;;5051593;28;20496;-58
2021/12/06 03:32:26;;;;;;;5.40;4.90;;;16.50;57.90;;;;;;5050419;28;20179;-61
2021/12/06 03:34:52;;;;;;;5.43;4.95;;;16.50;57.80;;;;;;5051543;28;20644;-61
2021/12/06 03:37:17;;;;;;;5.80;5.30;;;16.50;57.20;;;;;;5051534;28;20236;-61
2021/12/06 03:39:45;;;;;;;5.60;5.10;;;16.50;57.20;;;;;;5050507;28;20175;-60
2021/12/06 03:42:11;;;;;;;5.90;5.40;;;16.50;57.30;;;;;;5051231;28;20646;-61
2021/12/06 03:44:37;;;;;;;5.75;5.18;;;16.40;57.20;;;;;;5050916;28;20647;-60
2021/12/06 03:47:05;;;;;;;5.32;4.82;;;16.50;57.20;;;;;;5050703;28;20333;-60
2021/12/06 03:49:30;;;;;;;5.53;5.10;;;16.40;57.20;;;;;;5051008;28;20179;-60
2021/12/06 03:51:56;;;;;;;5.90;5.40;;;16.40;57.20;;;;;;5051225;28;20222;-60
2021/12/06 03:54:24;;;;;;;6.38;5.78;;;16.40;57.10;;;;;;5050395;28;20178;-60
2021/12/06 03:56:50;;;;;;;5.10;4.68;;;16.40;57.20;;;;;;5051221;28;20642;-61
2021/12/06 03:59:18;;;;;;;6.93;5.88;;;16.40;57.10;;;;;;5051447;28;20179;-61
2021/12/06 04:01:47;;;;;;;6.18;5.57;;;16.40;57.20;;;;;;5050407;28;20574;-59
2021/12/06 04:04:12;;;;;;;6.40;5.80;;;16.40;57.20;;;;;;5053569;28;20198;-60
2021/12/06 04:06:38;;;;;;;5.63;5.13;;;16.40;57.10;;;;;;5054314;28;20722;-60
2021/12/06 04:09:04;;;;;;;6.47;5.50;;;16.40;57.10;;;;;;5054985;28;20182;-60
2021/12/06 04:11:30;;;;;;;6.07;5.57;;;16.40;57.10;;;;;;5054481;28;20682;-60
2021/12/06 04:13:56;;;;;;;6.22;5.63;;;16.30;57.10;;;;;;5054512;28;20214;-59
2021/12/06 04:16:21;;;;;;;6.63;6.03;;;16.30;57.10;;;;;;5054587;28;20546;-59
2021/12/06 04:18:47;;;;;;;6.22;5.72;;;16.30;57.10;;;;;;5054925;28;20175;-59
2021/12/06 04:21:12;;;;;;;6.63;5.97;;;16.30;57.10;;;;;;5054310;28;20175;-60
2021/12/06 04:23:38;;;;;;;7.43;5.78;;;16.30;57.10;;;;;;5054411;28;20301;-60
2021/12/06 04:26:04;;;;;;;6.75;6.15;;;16.30;57.10;;;;;;5054640;28;20398;-60
2021/12/06 04:28:32;;;;;;;6.72;6.13;;;16.30;57.20;;;;;;5053935;28;20659;-59
2021/12/06 04:30:57;;;;;;;5.90;5.40;;;16.30;57.10;;;;;;5054759;28;20179;-60
2021/12/06 04:33:23;;;;;;;7.05;6.45;;;16.30;57.20;;;;;;5054513;28;20171;-59
2021/12/06 04:35:48;;;;;;;6.50;5.90;;;16.30;57.20;;;;;;5053934;28;20210;-60
2021/12/06 04:38:14;;;;;;;6.43;5.82;;;16.30;57.20;;;;;;5054528;28;20167;-60
2021/12/06 04:40:39;;;;;;;6.90;6.30;;;16.30;57.10;;;;;;5054332;28;20186;-60
2021/12/06 04:43:05;;;;;;;6.43;5.80;;;16.30;57.10;;;;;;5053984;28;20171;-60
2021/12/06 04:45:31;;;;;;;6.78;6.07;;;16.30;57.10;;;;;;5054129;28;20295;-59
2021/12/06 04:47:56;;;;;;;7.32;6.22;;;16.30;57.10;;;;;;5054539;28;20171;-60
2021/12/06 04:50:25;;;;;;;6.28;5.78;;;16.30;57.10;;;;;;5052938;28;20648;-59
2021/12/06 04:52:55;;;;;;;6.22;5.65;;;16.30;57.10;;;;;;5054533;28;20187;-60
2021/12/06 04:55:41;;;;;;;6.75;6.10;;;16.20;57.20;;;;;;5054012;28;20240;-60
2021/12/06 04:58:08;;;;;;;6.47;5.90;;;16.20;57.80;;;;;;5053625;28;20197;-60
2021/12/06 05:00:48;;;;;;;6.88;6.28;;;16.20;57.20;;;;;;5053812;28;20254;-60
2021/12/06 05:03:14;;;;;;;7.10;6.50;;;16.20;57.20;;;;;;5053281;28;20174;-61
2021/12/06 05:05:41;;;;;;;7.53;6.82;;;16.20;57.10;;;;;;5053450;28;20599;-60
2021/12/06 05:08:16;;;;;;;6.45;5.72;;;16.20;57.80;;;;;;5054048;28;20201;-60
2021/12/06 05:10:42;;;;;;;7.28;6.57;;;16.20;57.20;;;;;;5052877;28;20251;-60
2021/12/06 05:13:07;;;;;;;6.63;6.03;;;16.20;57.20;;;;;;5054047;28;20286;-60
2021/12/06 05:15:33;;;;;;;6.85;6.22;;;16.20;57.10;;;;;;5052206;28;20175;-60
2021/12/06 05:17:59;;;;;;;6.97;6.30;;;16.20;57.20;;;;;;5052987;28;20199;-60
2021/12/06 05:20:24;;;;;;;6.90;6.30;;;16.10;57.10;;;;;;5053728;28;20191;-60
2021/12/06 05:22:50;;;;;;;7.03;6.43;;;16.10;57.10;;;;;;5053509;28;20175;-59
2021/12/06 05:25:15;;;;;;;7.68;7.03;;;16.10;57.20;;;;;;5053015;28;20719;-60
2021/12/06 05:27:41;;;;;;;6.72;6.03;;;16.10;57.10;;;;;;5053218;28;20626;-59
2021/12/06 05:30:08;;;;;;;7.95;7.25;;;16.10;57.20;;;;;;5053534;28;20526;-59
2021/12/06 05:32:35;;;;;;;7.72;6.13;;;16.10;57.20;;;;;;5052780;28;20176;-59
2021/12/06 05:35:06;;;;;;;9.45;7.10;;;16.10;57.20;;;;;;5053621;28;20241;-59
2021/12/06 05:37:33;;;;;;;7.10;6.47;;;16.10;57.10;;;;;;5053488;28;20592;-60
2021/12/06 05:39:58;;;;;;;7.25;6.55;;;16.10;57.20;;;;;;5052982;28;20210;-59
2021/12/06 05:42:24;;;;;;;8.05;7.35;;;16.10;57.20;;;;;;5053145;28;20214;-60
2021/12/06 05:44:50;;;;;;;6.88;6.22;;;16.10;57.20;;;;;;5053371;28;20297;-60
2021/12/06 05:47:15;;;;;;;7.57;6.88;;;16.10;57.20;;;;;;5052594;28;20179;-59
2021/12/06 05:49:41;;;;;;;7.20;6.50;;;16.10;57.20;;;;;;5053135;28;20187;-60
2021/12/06 05:52:06;;;;;;;7.00;6.32;;;16.00;57.10;;;;;;5053094;28;20254;-59
2021/12/06 05:54:32;;;;;;;8.38;7.57;;;16.00;57.10;;;;;;5052611;28;20224;-60
2021/12/06 05:56:58;;;;;;;7.63;6.93;;;16.00;57.10;;;;;;5053386;28;20305;-60
2021/12/06 05:59:23;;;;;;;7.75;6.97;;;16.00;57.10;;;;;;5050964;28;20178;-61
2021/12/06 06:01:51;;;;;;;7.28;6.68;;;16.00;57.10;;;;;;5053066;28;20262;-60
2021/12/06 06:04:16;;;;;;;7.35;6.75;;;16.00;57.10;;;;;;5053136;28;20604;-61
2021/12/06 06:06:42;;;;;;;7.75;7.03;;;16.00;57.10;;;;;;5052319;28;20665;-60
2021/12/06 06:09:07;;;;;;;8.15;7.35;;;16.00;57.10;;;;;;5052896;28;20183;-60
2021/12/06 06:11:36;;;;;;;7.97;7.18;;;16.00;57.10;;;;;;5052693;28;20171;-59
2021/12/06 06:14:02;;;;;;;7.07;6.43;;;16.00;57.10;;;;;;5052099;28;20178;-61
2021/12/06 06:16:32;;;;;;;8.25;7.55;;;15.90;57.00;;;;;;5052617;28;20193;-60
2021/12/06 06:18:57;;;;;;;7.95;7.20;;;15.90;57.00;;;;;;5053083;28;20175;-61
2021/12/06 06:21:23;;;;;;;8.35;7.55;;;15.90;57.00;;;;;;5051906;28;20182;-61
2021/12/06 06:23:48;;;;;;;8.82;8.02;;;15.90;56.90;;;;;;5052953;28;20185;-61
2021/12/06 06:26:16;;;;;;;8.05;7.35;;;16.00;57.10;;;;;;5052215;28;20179;-60
2021/12/06 06:28:42;;;;;;;8.50;7.60;;;15.90;57.00;;;;;;5051584;28;20191;-60
2021/12/06 06:31:08;;;;;;;8.00;7.28;;;15.90;56.90;;;;;;5052916;28;20206;-59
2021/12/06 06:33:33;;;;;;;8.32;7.53;;;15.90;56.90;;;;;;5052351;28;20221;-60
2021/12/06 06:35:59;;;;;;;9.02;8.13;;;15.90;56.90;;;;;;5052149;28;20610;-59
2021/12/06 06:38:24;;;;;;;8.88;7.80;;;15.90;56.90;;;;;;5052204;28;20527;-60
2021/12/06 06:40:53;;;;;;;8.00;7.20;;;15.90;57.00;;;;;;5052552;28;20630;-59
2021/12/06 06:43:18;;;;;;;7.25;6.65;;;15.90;56.90;;;;;;5051640;28;20638;-60
2021/12/06 06:45:44;;;;;;;8.65;7.82;;;15.90;57.00;;;;;;5052351;28;20211;-60
2021/12/06 06:48:10;;;;;;;8.32;7.47;;;15.90;56.90;;;;;;5052433;28;20178;-60
2021/12/06 06:50:35;;;;;;;8.13;7.32;;;15.90;57.00;;;;;;5051127;28;20222;-59
2021/12/06 06:53:01;;;;;;;8.05;7.25;;;15.90;56.90;;;;;;5052371;28;20186;-60
2021/12/06 06:55:26;;;;;;;7.55;6.85;;;15.90;56.90;;;;;;5051455;28;20183;-60
2021/12/06 06:57:52;;;;;;;9.18;8.35;;;15.90;57.00;;;;;;5052057;28;20172;-60
2021/12/06 07:00:20;;;;;;;8.43;7.63;;;15.90;56.80;;;;;;5052096;28;20185;-60
2021/12/06 07:02:45;;;;;;;8.15;7.38;;;15.90;56.90;;;;;;5051564;28;20183;-60
2021/12/06 07:05:11;;;;;;;8.35;7.55;;;15.90;56.90;;;;;;5051840;28;20268;-60
2021/12/06 07:07:37;;;;;;;7.88;7.07;;;15.90;57.00;;;;;;5051933;28;20253;-60
2021/12/06 07:10:03;;;;;;;7.65;6.95;;;15.90;57.10;;;;;;5051654;28;20575;-60
2021/12/06 07:12:29;;;;;;;6.88;6.18;;;16.00;57.10;;;;;;5051524;28;20669;-60
2021/12/06 07:14:54;;;;;;;7.65;6.85;;;16.10;57.20;;;;;;5052245;28;20180;-61
2021/12/06 07:17:20;;;;;;;7.13;6.53;;;16.20;56.90;;;;;;5051132;28;20179;-61
2021/12/06 07:19:45;;;;;;;7.40;6.70;;;16.30;56.80;;;;;;5052003;28;20175;-59
2021/12/06 07:22:11;;;;;;;6.78;6.15;;;16.50;56.50;;;;;;5052048;28;20229;-59
2021/12/06 07:24:36;;;;;;;6.47;5.85;;;16.60;56.40;;;;;;5050861;28;20225;-59
2021/12/06 07:27:03;;;;;;;5.78;5.28;;;16.70;56.10;;;;;;5051769;28;20178;-60
2021/12/06 07:29:33;;;;;;;6.07;5.53;;;16.90;55.90;;;;;;5051371;28;20171;-59
2021/12/06 07:31:58;;;;;;;5.75;5.25;;;17.00;55.60;;;;;;5051265;28;20194;-60
2021/12/06 07:34:23;;;;;;;6.20;5.60;;;17.20;55.50;;;;;;5051249;28;20178;-59
2021/12/06 07:36:58;;;;;;;5.85;5.35;;;17.30;55.30;;;;;;5051795;28;20579;-60
2021/12/06 07:39:24;;;;;;;7.13;5.72;;;17.40;55.00;;;;;;5053473;28;20193;-60
2021/12/06 07:41:50;;;;;;;5.43;5.03;;;17.40;55.00;;;;;;5055752;28;20601;-60
2021/12/06 07:44:15;;;;;;;5.90;5.30;;;17.40;55.10;;;;;;5055997;28;20211;-60
2021/12/06 07:46:41;;;;;;;5.15;4.65;;;17.40;55.10;;;;;;5054982;28;20636;-59
2021/12/06 07:49:06;;;;;;;5.85;5.35;;;17.60;55.00;;;;;;5055694;28;20183;-59
2021/12/06 07:51:32;;;;;;;5.40;4.90;;;17.90;54.60;;;;;;5055177;28;20226;-58
2021/12/06 07:53:57;;;;;;;5.47;4.78;;;18.10;54.10;;;;;;5055155;28;20518;-72
2021/12/06 07:56:23;;;;;;;5.68;5.05;;;18.40;53.80;;;;;;5055170;28;20722;-64
2021/12/06 07:58:48;;;;;;;5.18;4.63;;;18.60;53.50;;;;;;5055031;28;20182;-63
2021/12/06 08:01:14;;;;;;;7.60;5.10;;;18.60;53.20;;;;;;5055523;28;20626;-62
2021/12/06 08:03:43;;;;;;;5.90;4.97;;;18.80;53.40;;;;;;5055072;28;20210;-62
2021/12/06 08:06:09;;;;;;;6.22;4.57;;;18.80;53.60;;;;;;5054864;28;20242;-62
2021/12/06 08:08:34;;;;;;;7.35;5.20;;;18.70;53.80;;;;;;5055032;28;20252;-62
2021/12/06 08:11:04;;;;;;;7.38;4.82;;;18.70;54.10;;;;;;5055161;28;20183;-62
2021/12/06 08:13:32;;;;;;;5.80;5.25;;;18.60;54.30;;;;;;5054197;28;20175;-62
2021/12/06 08:15:59;;;;;;;6.00;5.38;;;18.60;54.40;;;;;;5055178;28;20215;-62
2021/12/06 08:18:25;;;;;;;5.63;4.90;;;18.60;55.20;;;;;;5054894;28;20179;-62
2021/12/06 08:20:51;;;;;;;6.28;4.78;;;18.50;54.70;;;;;;5054226;28;20206;-62
2021/12/06 08:23:16;;;;;;;6.78;4.53;;;18.60;54.80;;;;;;5054974;28;20191;-62
2021/12/06 08:25:43;;;;;;;5.38;4.80;;;18.50;55.50;;;;;;5054631;28;20550;-62
2021/12/06 08:28:08;;;;;;;5.40;4.78;;;18.50;54.90;;;;;;5054360;28;20198;-61
2021/12/06 08:30:34;;;;;;;5.57;4.60;;;18.50;55.00;;;;;;5054518;28;20629;-62
2021/12/06 08:33:01;;;;;;;5.57;5.00;;;18.50;54.90;;;;;;5054950;28;20183;-63
2021/12/06 08:35:26;;;;;;;8.13;5.13;;;18.50;54.90;;;;;;5053818;28;20261;-63
2021/12/06 08:37:53;;;;;;;6.75;5.13;;;18.60;54.90;;;;;;5054689;28;20702;-63
2021/12/06 08:40:18;;;;;;;6.05;4.63;;;18.50;54.90;;;;;;5054810;28;20183;-62
2021/12/06 08:42:44;;;;;;;6.15;5.03;;;18.60;54.90;;;;;;5053916;28;20178;-62
2021/12/06 08:45:10;;;;;;;5.20;4.43;;;18.60;54.90;;;;;;5054429;28;20219;-62
2021/12/06 08:47:36;;;;;;;4.72;4.22;;;18.60;54.90;;;;;;5054261;28;20600;-62
2021/12/06 08:50:01;;;;;;;6.13;4.68;;;18.60;55.00;;;;;;5053721;28;20175;-62
2021/12/06 08:52:27;;;;;;;7.35;5.03;;;18.60;54.90;;;;;;5052683;28;20223;-62
2021/12/06 08:54:52;;;;;;;5.70;4.70;;;18.60;54.90;;;;;;5054272;28;20175;-61
2021/12/06 08:57:18;;;;;;;5.47;4.88;;;18.60;54.80;;;;;;5053707;28;20210;-62
2021/12/06 08:59:44;;;;;;;5.00;4.50;;;18.60;55.00;;;;;;5054123;28;20657;-62
2021/12/06 09:02:09;;;;;;;6.78;4.80;;;18.60;54.90;;;;;;5053603;28;20179;-62
2021/12/06 09:04:38;;;;;;;5.30;4.80;;;18.60;54.90;;;;;;5053915;28;20207;-62
2021/12/06 09:07:12;;;;;;;6.50;4.75;;;18.60;54.90;;;;;;5054110;28;20171;-62
2021/12/06 09:09:45;;;;;;;8.23;5.60;;;18.60;54.90;;;;;;5053352;28;20241;-64
2021/12/06 09:12:11;;;;;;;6.38;4.82;;;18.60;54.90;;;;;;5054171;28;20190;-70
2021/12/06 09:14:36;;;;;;;7.00;4.70;;;18.70;54.80;;;;;;5053720;28;20174;-71
2021/12/06 09:17:08;;;;;;;8.07;4.38;;;18.70;54.70;;;;;;5053278;28;20669;-64
2021/12/06 09:19:34;;;;;;;5.35;4.07;;;18.70;54.80;;;;;;5053782;28;20649;-63
2021/12/06 09:21:59;;;;;;;4.53;4.13;;;18.80;54.70;;;;;;5053981;28;20179;-64
2021/12/06 09:24:25;;;;;;;4.65;4.25;;;18.80;54.70;;;;;;5053156;28;20194;-64
2021/12/06 09:26:50;;;;;;;6.88;4.55;;;18.80;54.70;;;;;;5054138;28;20175;-63
2021/12/06 09:29:16;;;;;;;4.72;4.25;;;18.90;54.60;;;;;;5053920;28;20225;-65
2021/12/06 09:31:42;;;;;;;7.53;4.75;;;18.90;54.60;;;;;;5052910;28;20507;-65
2021/12/06 09:34:07;;;;;;;7.75;4.70;;;18.90;54.70;;;;;;5053618;28;20233;-66
2021/12/06 09:36:36;;;;;;;4.95;4.15;;;18.80;54.70;;;;;;5053352;28;20178;-65
2021/12/06 09:39:05;;;;;;;5.35;4.80;;;18.80;54.90;;;;;;5053036;28;20180;-64
2021/12/06 09:41:31;;;;;;;6.72;4.55;;;18.70;54.90;;;;;;5053121;28;20524;-64
2021/12/06 09:43:59;;;;;;;7.28;4.80;;;18.50;55.10;;;;;;5053559;28;20179;-64
2021/12/06 09:46:25;;;;;;;5.13;4.40;;;18.40;55.30;;;;;;5052586;28;20183;-63
2021/12/06 09:48:51;;;;;;;5.65;4.28;;;18.40;55.40;;;;;;5053370;28;20211;-63
2021/12/06 09:51:21;;;;;;;5.78;4.32;;;18.40;55.50;;;;;;5052747;28;20242;-71
2021/12/06 09:53:47;;;;;;;10.20;5.63;;;18.30;55.50;;;;;;5053472;28;20234;-65
2021/12/06 09:56:16;;;;;;;5.97;5.25;;;18.30;55.40;;;;;;5053052;28;20254;-64
2021/12/06 09:58:42;;;;;;;5.45;4.95;;;18.30;55.30;;;;;;5052214;28;20228;-65
2021/12/06 10:01:16;;;;;;;13.30;4.82;;;18.20;55.60;;;;;;5052188;28;20171;-66
2021/12/06 10:03:47;;;;;;;5.20;4.70;;;18.20;55.70;;;;;;5052865;28;20660;-66
2021/12/06 10:06:13;;;;;;;5.25;4.75;;;18.10;55.90;;;;;;5052625;28;20222;-65
2021/12/06 10:08:42;;;;;;;9.13;5.22;;;18.00;56.00;;;;;;5052833;28;20191;-65
2021/12/06 10:11:12;;;;;;;6.00;4.60;;;18.00;56.00;;;;;;5053196;28;20202;-64
2021/12/06 10:13:39;;;;;;;6.88;5.00;;;18.00;56.20;;;;;;5052019;28;20175;-64
2021/12/06 10:16:05;;;;;;;4.95;4.45;;;18.00;56.10;;;;;;5052335;28;20318;-63
2021/12/06 10:18:30;;;;;;;6.30;5.15;;;18.10;56.10;;;;;;5054601;28;20265;-63
2021/12/06 10:20:56;;;;;;;7.78;5.15;;;18.00;56.10;;;;;;5058735;28;20171;-63
2021/12/06 10:23:21;;;;;;;5.47;4.80;;;18.00;55.90;;;;;;5052517;28;20175;-63
2021/12/06 10:25:49;;;;;;;8.50;5.00;;;18.00;56.00;;;;;;5069883;28;20206;-63
2021/12/06 10:28:15;;;;;;;7.10;5.78;;;18.00;56.00;;;;;;5071512;28;20185;-62
2021/12/06 10:30:53;;;;;;;6.45;5.30;;;17.90;56.10;;;;;;5072345;28;20194;-64
2021/12/06 10:33:26;;;;;;;8.23;5.45;;;17.90;56.10;;;;;;5062753;28;20255;-66
2021/12/06 10:36:13;;;;;;;6.72;5.22;;;17.90;56.10;;;;;;5051710;28;20186;-66
2021/12/06 10:38:41;;;;;;;6.03;5.43;;;17.90;56.10;;;;;;5052060;28;20463;-65
2021/12/06 10:41:08;;;;;;;7.15;5.65;;;17.80;55.90;;;;;;5051357;28;20637;-66
2021/12/06 10:43:34;;;;;;;6.82;5.55;;;17.80;55.90;;;;;;5052164;28;20221;-65
2021/12/06 10:46:00;;;;;;;6.57;5.28;;;17.90;56.00;;;;;;5052202;28;20211;-65
2021/12/06 10:48:36;;;;;;;9.30;5.47;;;17.90;56.00;;;;;;5051200;28;20175;-66
2021/12/06 10:51:10;;;;;;;6.40;5.47;;;17.90;55.80;;;;;;5067024;28;20619;-65
2021/12/06 10:53:40;;;;;;;6.90;5.35;;;17.80;55.80;;;;;;5071515;28;20556;-65
2021/12/06 10:56:16;;;;;;;7.78;6.03;;;17.80;55.80;;;;;;5070263;28;20219;-65
2021/12/06 10:58:41;;;;;;;6.32;5.55;;;17.80;56.00;;;;;;5071611;28;20548;-65
2021/12/06 11:01:18;;;;;;;7.28;5.85;;;17.80;55.80;;;;;;5071952;28;20177;-65
2021/12/06 11:03:47;;;;;;;5.80;5.20;;;17.80;55.90;;;;;;5071013;28;20261;-64
2021/12/06 11:06:18;;;;;;;6.63;5.75;;;17.80;55.90;;;;;;5071652;28;20294;-65
2021/12/06 11:08:44;;;;;;;6.90;6.10;;;17.70;55.80;;;;;;5070976;28;20155;-65
2021/12/06 11:11:12;;;;;;;6.68;5.95;;;17.80;55.90;;;;;;5071904;28;20183;-64
2021/12/06 11:13:40;;;;;;;6.57;5.72;;;17.80;55.90;;;;;;5071276;28;20641;-65
2021/12/06 11:16:09;;;;;;;6.55;5.38;;;17.80;55.90;;;;;;5071154;28;20183;-64
2021/12/06 11:18:47;;;;;;;6.88;5.88;;;17.80;55.80;;;;;;5071300;28;20225;-64
2021/12/06 11:21:19;;;;;;;6.82;5.80;;;17.90;55.70;;;;;;5071652;28;20170;-63
2021/12/06 11:23:57;;;;;;;6.72;5.60;;;18.00;55.60;;;;;;5067655;28;20176;-64
2021/12/06 11:26:23;;;;;;;6.88;6.18;;;18.00;55.40;;;;;;5051597;28;20305;-63
2021/12/06 11:28:48;;;;;;;6.72;6.05;;;18.10;55.30;;;;;;5051476;28;20678;-65
2021/12/06 11:31:15;;;;;;;6.80;6.15;;;18.20;55.10;;;;;;5050995;28;20646;-65
2021/12/06 11:33:41;;;;;;;6.32;5.65;;;18.20;55.00;;;;;;5051425;28;20261;-66
2021/12/06 11:36:22;;;;;;;6.00;5.40;;;18.30;54.90;;;;;;5051558;28;20258;-66
2021/12/06 11:38:57;;;;;;;6.63;5.55;;;18.30;54.70;;;;;;5051170;28;20179;-65
2021/12/06 11:41:22;;;;;;;6.00;5.40;;;18.40;54.70;;;;;;5049867;28;20175;-66
2021/12/06 11:43:48;;;;;;;6.38;5.70;;;18.40;54.60;;;;;;5049705;28;20179;-65
2021/12/06 11:46:13;;;;;;;7.05;5.65;;;18.40;54.70;;;;;;5051301;28;20260;-64
2021/12/06 11:48:39;;;;;;;6.60;5.60;;;18.30;54.80;;;;;;5033274;28;20183;-64
2021/12/06 11:51:10;;;;;;;5.80;5.30;;;18.20;54.90;;;;;;5050717;28;20651;-64
2021/12/06 11:53:42;;;;;;;6.30;5.68;;;18.20;55.10;;;;;;5051192;28;20220;-64
2021/12/06 11:56:08;;;;;;;6.63;5.85;;;18.10;55.10;;;;;;5051941;28;20179;-64
2021/12/06 11:58:39;;;;;;;6.43;5.72;;;18.10;55.20;;;;;;5050527;28;20573;-63
2021/12/06 12:01:24;;;;;;;7.63;6.00;;;18.10;55.20;;;;;;5051625;28;20190;-63
2021/12/06 12:03:52;;;;;;;6.13;5.53;;;18.20;55.20;;;;;;5051572;28;20182;-63
2021/12/06 12:06:38;;;;;;;8.45;6.05;;;18.20;55.10;;;;;;5050655;28;20272;-63
2021/12/06 12:09:13;;;;;;;6.43;5.78;;;18.30;55.00;;;;;;5051158;28;20537;-64
2021/12/06 12:11:57;;;;;;;6.60;5.70;;;18.40;55.00;;;;;;5051250;28;20598;-64
2021/12/06 12:14:27;;;;;;;7.10;5.30;;;18.30;54.90;;;;;;5050903;28;20175;-64
2021/12/06 12:16:53;;;;;;;6.82;6.13;;;18.30;55.00;;;;;;5050870;28;20657;-64
2021/12/06 12:19:18;;;;;;;6.70;5.93;;;18.30;55.00;;;;;;5050524;28;20179;-63
2021/12/06 12:21:44;;;;;;;7.28;5.35;;;18.20;55.10;;;;;;5051242;28;20188;-63
2021/12/06 12:24:10;;;;;;;7.32;5.75;;;18.20;55.30;;;;;;5058595;28;20587;-61
2021/12/06 12:26:41;;;;;;;6.55;5.05;;;18.10;55.30;;;;;;5073852;28;20174;-62
2021/12/06 12:29:13;;;;;;;7.78;5.90;;;18.00;55.70;;;;;;5074821;28;20278;-63
2021/12/06 12:31:38;;;;;;;6.18;5.57;;;18.00;55.60;;;;;;5057791;28;20174;-63
2021/12/06 12:34:04;;;;;;;6.80;5.80;;;18.00;55.80;;;;;;5074073;28;20175;-66
2021/12/06 12:36:34;;;;;;;8.10;6.07;;;18.00;55.70;;;;;;5074352;28;20178;-67
2021/12/06 12:38:59;;;;;;;7.25;5.65;;;18.00;55.60;;;;;;5073582;28;20170;-65
2021/12/06 12:41:33;;;;;;;6.88;5.60;;;18.00;55.50;;;;;;5073591;28;20505;-65
2021/12/06 12:44:07;;;;;;;7.18;5.53;;;18.00;55.50;;;;;;5074597;28;20715;-64
2021/12/06 12:46:38;;;;;;;6.93;5.75;;;18.00;55.40;;;;;;5074092;28;20201;-64
2021/12/06 12:49:30;;;;;;;6.20;5.47;;;18.00;55.30;;;;;;5073657;28;20525;-64
2021/12/06 12:52:00;;;;;;;6.68;5.07;;;18.00;55.50;;;;;;5074173;28;20226;-63
2021/12/06 12:54:28;;;;;;;6.03;5.20;;;17.90;55.60;;;;;;5073451;28;20286;-64
2021/12/06 12:57:05;;;;;;;5.93;5.43;;;17.90;55.50;;;;;;5074290;28;20640;-64
2021/12/06 12:59:50;;;;;;;7.05;5.22;;;17.90;55.40;;;;;;5073681;28;20239;-64
2021/12/06 13:02:18;;;;;;;6.60;5.32;;;17.90;55.40;;;;;;5073391;28;20174;-64
2021/12/06 13:04:58;;;;;;;6.25;4.90;;;18.00;55.40;;;;;;5073731;28;20699;-64